createdAt,value
2019-05-20T00:01:47.325Z,100361.16
2019-05-20T00:04:15.060Z,100361.09
2019-05-20T00:06:42.910Z,100359.34
2019-05-20T00:09:10.653Z,100355.64
2019-05-20T00:11:38.382Z,100353.28
2019-05-20T00:14:06.146Z,100346.66
2019-05-20T00:16:33.973Z,100346.84
2019-05-20T00:19:01.695Z,100348.35
2019-05-20T00:21:42.067Z,100344.81
2019-05-20T00:24:04.049Z,100336.86
2019-05-20T00:26:31.823Z,100338.56
2019-05-20T00:28:59.563Z,100328.21
2019-05-20T00:31:27.317Z,100337.09
2019-05-20T00:33:55.120Z,100335.44
2019-05-20T00:36:22.841Z,100329.09
2019-05-20T00:39:09.714Z,100330.70
2019-05-20T00:41:37.439Z,100330.70
2019-05-20T00:44:05.157Z,100324.25
2019-05-20T00:46:32.967Z,100332.76
2019-05-20T00:49:00.685Z,100334.12
2019-05-20T00:51:35.975Z,100334.05
2019-05-20T00:54:03.699Z,100333.69
2019-05-20T00:56:31.465Z,100332.28
2019-05-20T00:58:59.266Z,100328.73
2019-05-20T01:01:26.979Z,100332.14
2019-05-20T01:03:54.736Z,100326.94
2019-05-20T01:06:22.580Z,100325.95
2019-05-20T01:08:50.329Z,100331.95
2019-05-20T01:11:18.191Z,100330.48
2019-05-20T01:13:46.062Z,100331.84
2019-05-20T01:16:13.851Z,100339.91
2019-05-20T01:18:41.583Z,100335.63
2019-05-20T01:21:09.395Z,100336.70
2019-05-20T01:23:37.112Z,100326.52
2019-05-20T01:26:04.888Z,100335.36
2019-05-20T01:28:32.907Z,100334.94
2019-05-20T01:31:09.359Z,100335.94
2019-05-20T01:33:37.091Z,100335.69
2019-05-20T01:36:04.868Z,100338.64
2019-05-20T01:38:32.667Z,100341.97
2019-05-20T01:41:00.413Z,100336.84
2019-05-20T01:43:28.383Z,100336.16
2019-05-20T01:45:56.090Z,100336.89
2019-05-20T01:48:23.836Z,100333.13
2019-05-20T01:50:51.561Z,100337.81
2019-05-20T01:53:19.298Z,100340.70
2019-05-20T01:55:47.016Z,100338.65
2019-05-20T01:58:14.733Z,100337.72
2019-05-20T02:00:42.482Z,100350.27
2019-05-20T02:03:10.283Z,100344.55
2019-05-20T02:05:38.094Z,100350.10
2019-05-20T02:08:06.018Z,100354.04
2019-05-20T02:10:33.742Z,100353.73
2019-05-20T02:16:34.409Z,100367.52
2019-05-20T02:19:20.814Z,100362.07
2019-05-20T02:21:50.357Z,100359.12
2019-05-20T02:24:51.210Z,100364.17
2019-05-20T02:27:19.179Z,100361.61
2019-05-20T02:29:47.244Z,100355.30
2019-05-20T02:32:33.243Z,100357.80
2019-05-20T02:35:01.042Z,100351.08
2019-05-20T02:37:28.781Z,100352.31
2019-05-20T02:39:56.600Z,100352.44
2019-05-20T02:42:24.324Z,100353.33
2019-05-20T02:44:52.108Z,100355.61
2019-05-20T02:47:19.894Z,100359.79
2019-05-20T02:49:47.654Z,100345.45
2019-05-20T02:52:15.454Z,100340.89
2019-05-20T02:54:43.192Z,100347.83
2019-05-20T02:57:10.920Z,100353.40
2019-05-20T02:59:38.649Z,100355.41
2019-05-20T03:02:06.611Z,100348.38
2019-05-20T03:04:34.435Z,100340.08
2019-05-20T03:07:12.512Z,100340.75
2019-05-20T03:09:37.947Z,100337.56
2019-05-20T03:12:05.710Z,100331.58
2019-05-20T03:14:33.598Z,100331.48
2019-05-20T03:17:01.420Z,100331.41
2019-05-20T03:19:29.194Z,100334.70
2019-05-20T03:21:57.058Z,100336.52
2019-05-20T03:24:24.835Z,100334.33
2019-05-20T03:26:52.618Z,100337.10
2019-05-20T03:29:20.379Z,100336.16
2019-05-20T03:31:48.159Z,100332.17
2019-05-20T03:34:43.110Z,100334.09
2019-05-20T03:36:52.327Z,100340.06
2019-05-20T03:39:38.984Z,100338.36
2019-05-20T03:42:06.801Z,100339.76
2019-05-20T03:44:34.537Z,100342.36
2019-05-20T03:47:02.326Z,100345.05
2019-05-20T03:49:30.058Z,100340.44
2019-05-20T03:51:57.810Z,100341.61
2019-05-20T03:54:25.583Z,100337.72
2019-05-20T03:56:53.359Z,100332.76
2019-05-20T03:59:21.111Z,100333.49
2019-05-20T04:01:48.924Z,100335.17
2019-05-20T04:04:16.640Z,100337.45
2019-05-20T04:06:44.423Z,100328.96
2019-05-20T04:09:12.143Z,100331.77
2019-05-20T04:11:39.879Z,100330.63
2019-05-20T04:14:08.674Z,100328.98
2019-05-20T04:16:36.451Z,100336.27
2019-05-20T04:19:08.673Z,100336.52
2019-05-20T04:21:40.847Z,100341.73
2019-05-20T04:24:08.843Z,100338.30
2019-05-20T04:26:36.722Z,100340.22
2019-05-20T04:29:04.524Z,100339.44
2019-05-20T04:31:32.298Z,100335.16
2019-05-20T04:34:00.045Z,100332.28
2019-05-20T04:36:27.849Z,100321.94
2019-05-20T04:38:57.863Z,100316.42
2019-05-20T04:41:25.707Z,100316.75
2019-05-20T04:43:53.752Z,100321.86
2019-05-20T04:46:21.491Z,100321.50
2019-05-20T04:48:49.289Z,100328.58
2019-05-20T04:51:17.073Z,100327.02
2019-05-20T04:53:44.800Z,100324.91
2019-05-20T04:56:22.740Z,100319.99
2019-05-20T04:58:50.616Z,100330.41
2019-05-20T05:01:18.386Z,100328.66
2019-05-20T05:03:46.187Z,100326.45
2019-05-20T05:06:14.028Z,100317.47
2019-05-20T05:08:41.747Z,100319.23
2019-05-20T05:11:10.543Z,100322.31
2019-05-20T05:13:38.317Z,100326.39
2019-05-20T05:16:06.155Z,100325.42
2019-05-20T05:18:34.681Z,100324.61
2019-05-20T05:21:02.420Z,100327.69
2019-05-20T05:23:30.320Z,100330.62
2019-05-20T05:25:58.288Z,100326.34
2019-05-20T05:28:26.239Z,100320.23
2019-05-20T05:30:53.969Z,100332.46
2019-05-20T05:33:21.710Z,100343.17
2019-05-20T05:35:53.622Z,100356.88
2019-05-20T05:38:20.636Z,100350.27
2019-05-20T05:40:48.508Z,100347.19
2019-05-20T05:43:16.294Z,100346.03
2019-05-20T05:45:44.007Z,100339.95
2019-05-20T05:48:11.747Z,100348.41
2019-05-20T05:50:39.481Z,100357.28
2019-05-20T05:53:07.190Z,100352.38
2019-05-20T05:55:34.928Z,100357.72
2019-05-20T05:58:02.647Z,100356.31
2019-05-20T06:00:30.375Z,100357.15
2019-05-20T06:02:58.151Z,100350.61
2019-05-20T06:05:25.854Z,100350.88
2019-05-20T06:07:53.592Z,100362.95
2019-05-20T06:10:21.346Z,100314.34
2019-05-20T06:12:49.134Z,100351.85
2019-05-20T06:15:17.121Z,100355.72
2019-05-20T06:17:44.994Z,100357.91
2019-05-20T06:20:18.696Z,100358.14
2019-05-20T06:22:43.922Z,100356.69
2019-05-20T06:25:11.934Z,100371.20
2019-05-20T06:27:39.675Z,100367.16
2019-05-20T06:30:07.508Z,100377.84
2019-05-20T06:32:35.235Z,100375.83
2019-05-20T06:35:03.058Z,100370.66
2019-05-20T06:37:32.755Z,100374.25
2019-05-20T06:40:00.520Z,100367.90
2019-05-20T06:42:28.251Z,100370.16
2019-05-20T06:44:57.451Z,100370.35
2019-05-20T06:47:25.415Z,100367.95
2019-05-20T06:49:54.160Z,100365.94
2019-05-20T06:52:35.325Z,100368.29
2019-05-20T06:54:51.484Z,100366.16
2019-05-20T06:57:27.087Z,100362.08
2019-05-20T06:59:52.791Z,100365.06
2019-05-20T07:02:20.529Z,100362.31
2019-05-20T07:04:48.308Z,100365.33
2019-05-20T07:07:20.866Z,100360.12
2019-05-20T07:09:45.529Z,100366.67
2019-05-20T07:12:13.276Z,100367.02
2019-05-20T07:14:41.022Z,100369.61
2019-05-20T07:17:08.825Z,100363.83
2019-05-20T07:19:36.556Z,100371.42
2019-05-20T07:22:04.288Z,100375.02
2019-05-20T07:24:32.007Z,100377.91
2019-05-20T07:26:59.819Z,100380.34
2019-05-20T07:29:27.558Z,100385.27
2019-05-20T07:31:55.332Z,100387.27
2019-05-20T07:34:23.104Z,100390.22
2019-05-20T07:37:02.686Z,100383.00
2019-05-20T07:39:22.126Z,100377.34
2019-05-20T07:41:49.895Z,100383.94
2019-05-20T07:44:17.659Z,100378.63
2019-05-20T07:46:45.417Z,100382.69
2019-05-20T07:49:14.192Z,100381.24
2019-05-20T07:51:41.986Z,100389.19
2019-05-20T07:54:09.810Z,100387.25
2019-05-20T07:56:39.167Z,100398.86
2019-05-20T07:59:06.917Z,100388.42
2019-05-20T08:01:34.940Z,100391.05
2019-05-20T08:04:03.737Z,100394.62
2019-05-20T08:06:31.599Z,100395.55
2019-05-20T08:08:59.465Z,100394.77
2019-05-20T08:11:27.271Z,100394.15
2019-05-20T08:13:55.037Z,100394.45
2019-05-20T08:16:22.787Z,100392.55
2019-05-20T08:18:52.909Z,100395.95
2019-05-20T08:21:22.986Z,100392.04
2019-05-20T08:23:50.806Z,100397.53
2019-05-20T08:26:18.559Z,100395.88
2019-05-20T08:28:46.331Z,100397.74
2019-05-20T08:31:14.076Z,100397.47
2019-05-20T08:33:41.787Z,100393.17
2019-05-20T08:36:09.882Z,100399.47
2019-05-20T08:38:37.579Z,100406.37
2019-05-20T08:41:05.344Z,100402.00
2019-05-20T08:43:33.179Z,100404.20
2019-05-20T08:46:00.910Z,100403.18
2019-05-20T08:48:28.680Z,100403.44
2019-05-20T08:50:56.485Z,100397.41
2019-05-20T08:53:24.261Z,100402.82
2019-05-20T08:55:54.770Z,100398.83
2019-05-20T08:58:23.186Z,100408.14
2019-05-20T09:00:52.568Z,100404.81
2019-05-20T09:03:20.332Z,100404.70
2019-05-20T09:05:48.064Z,100404.18
2019-05-20T09:08:15.821Z,100400.18
2019-05-20T09:10:43.610Z,100403.77
2019-05-20T09:13:11.331Z,100402.83
2019-05-20T09:15:39.069Z,100404.86
2019-05-20T09:18:06.796Z,100401.47
2019-05-20T09:20:34.633Z,100397.16
2019-05-20T09:23:02.971Z,100403.97
2019-05-20T09:25:31.356Z,100405.10
2019-05-20T09:27:59.324Z,100408.61
2019-05-20T09:30:27.047Z,100409.64
2019-05-20T09:32:54.836Z,100411.51
2019-05-20T09:35:22.635Z,100412.06
2019-05-20T09:37:54.318Z,100407.42
2019-05-20T09:40:41.424Z,100403.14
2019-05-20T09:43:09.251Z,100400.03
2019-05-20T09:45:36.957Z,100412.58
2019-05-20T09:48:04.721Z,100411.06
2019-05-20T09:50:33.458Z,100412.31
2019-05-20T09:53:06.027Z,100416.14
2019-05-20T09:55:30.718Z,100419.80
2019-05-20T09:57:58.515Z,100418.20
2019-05-20T10:00:26.334Z,100418.85
2019-05-20T10:02:54.128Z,100420.88
2019-05-20T10:05:21.857Z,100416.83
2019-05-20T10:07:51.489Z,100409.72
2019-05-20T10:10:23.844Z,100409.95
2019-05-20T10:12:51.666Z,100406.50
2019-05-20T10:15:19.539Z,100403.86
2019-05-20T10:17:47.254Z,100407.28
2019-05-20T10:20:15.781Z,100402.51
2019-05-20T10:22:43.575Z,100400.63
2019-05-20T10:25:11.304Z,100403.22
2019-05-20T10:27:39.023Z,100409.81
2019-05-20T10:30:06.780Z,100410.28
2019-05-20T10:32:36.567Z,100408.36
2019-05-20T10:35:04.428Z,100405.88
2019-05-20T10:37:32.209Z,100407.64
2019-05-20T10:39:59.993Z,100412.78
2019-05-20T10:42:27.801Z,100415.21
2019-05-20T10:44:55.515Z,100419.68
2019-05-20T10:47:32.524Z,100412.16
2019-05-20T10:50:00.277Z,100415.73
2019-05-20T10:52:30.043Z,100412.69
2019-05-20T10:54:57.847Z,100409.87
2019-05-20T10:57:25.637Z,100414.86
2019-05-20T10:59:53.377Z,100406.61
2019-05-20T11:02:21.134Z,100415.98
2019-05-20T11:04:48.922Z,100419.87
2019-05-20T11:07:16.794Z,100418.80
2019-05-20T11:09:44.511Z,100414.46
2019-05-20T11:12:12.386Z,100417.65
2019-05-20T11:14:40.171Z,100410.88
2019-05-20T11:17:07.925Z,100415.18
2019-05-20T11:19:35.712Z,100414.05
2019-05-20T11:22:03.455Z,100411.23
2019-05-20T11:24:33.113Z,100405.16
2019-05-20T11:27:11.166Z,100407.91
2019-05-20T11:29:38.966Z,100401.13
2019-05-20T11:32:06.779Z,100397.77
2019-05-20T11:34:34.557Z,100399.93
2019-05-20T11:37:02.391Z,100396.53
2019-05-20T11:39:33.803Z,100401.29
2019-05-20T11:41:59.660Z,100400.16
2019-05-20T11:44:27.433Z,100403.64
2019-05-20T11:46:55.208Z,100401.52
2019-05-20T11:49:22.940Z,100408.69
2019-05-20T11:51:50.716Z,100412.28
2019-05-20T11:54:18.501Z,100411.33
2019-05-20T11:56:46.307Z,100413.05
2019-05-20T11:59:14.076Z,100412.32
2019-05-20T12:02:06.188Z,100415.51
2019-05-20T12:04:33.935Z,100406.02
2019-05-20T12:07:01.656Z,100406.89
2019-05-20T12:09:29.406Z,100403.51
2019-05-20T12:11:57.446Z,100399.17
2019-05-20T12:14:25.262Z,100409.33
2019-05-20T12:16:52.967Z,100403.63
2019-05-20T12:19:20.706Z,100407.78
2019-05-20T12:21:48.443Z,100407.23
2019-05-20T12:27:09.204Z,100410.92
2019-05-20T12:29:37.048Z,100414.70
2019-05-20T12:32:04.883Z,100408.31
2019-05-20T12:34:32.643Z,100407.27
2019-05-20T12:37:00.532Z,100415.97
2019-05-20T12:39:28.546Z,100412.38
2019-05-20T12:41:56.341Z,100400.94
2019-05-20T12:44:26.065Z,100398.23
2019-05-20T12:46:53.779Z,100396.25
2019-05-20T12:49:21.633Z,100395.88
2019-05-20T12:51:49.463Z,100394.05
2019-05-20T12:54:17.321Z,100387.91
2019-05-20T12:56:45.069Z,100383.19
2019-05-20T12:59:12.803Z,100382.56
2019-05-20T13:01:42.326Z,100385.27
2019-05-20T13:04:11.544Z,100383.80
2019-05-20T13:06:39.720Z,100378.00
2019-05-20T13:09:07.486Z,100381.88
2019-05-20T13:11:35.328Z,100367.41
2019-05-20T13:14:03.095Z,100377.95
2019-05-20T13:16:30.903Z,100378.52
2019-05-20T13:18:58.785Z,100372.80
2019-05-20T13:21:26.575Z,100365.69
2019-05-20T13:23:54.332Z,100361.38
2019-05-20T13:26:22.067Z,100358.94
2019-05-20T13:28:49.783Z,100360.90
2019-05-20T13:31:17.549Z,100362.34
2019-05-20T13:33:45.267Z,100355.77
2019-05-20T13:36:14.158Z,100362.48
2019-05-20T13:38:41.909Z,100356.55
2019-05-20T13:41:09.699Z,100345.49
2019-05-20T13:43:48.903Z,100349.97
2019-05-20T13:46:16.645Z,100339.09
2019-05-20T13:48:44.376Z,100339.71
2019-05-20T13:51:12.123Z,100336.12
2019-05-20T13:53:39.904Z,100340.52
2019-05-20T13:56:07.626Z,100335.84
2019-05-20T13:58:35.384Z,100331.61
2019-05-20T14:01:03.167Z,100327.96
2019-05-20T14:03:30.935Z,100328.58
2019-05-20T14:05:58.671Z,100326.05
2019-05-20T14:08:26.415Z,100326.66
2019-05-20T14:11:03.706Z,100323.52
2019-05-20T14:13:23.645Z,100317.09
2019-05-20T14:15:51.374Z,100315.80
2019-05-20T14:18:19.089Z,100324.44
2019-05-20T14:20:51.950Z,100313.01
2019-05-20T14:23:19.635Z,100309.48
2019-05-20T14:25:47.348Z,100301.50
2019-05-20T14:28:15.078Z,100309.48
2019-05-20T14:30:42.918Z,100296.95
2019-05-20T14:33:10.690Z,100290.72
2019-05-20T14:35:38.470Z,100234.05
2019-05-20T14:38:06.204Z,100280.09
2019-05-20T14:40:33.931Z,100278.03
2019-05-20T14:43:01.667Z,100269.48
2019-05-20T14:45:30.633Z,100273.14
2019-05-20T14:48:12.997Z,100263.61
2019-05-20T14:50:43.906Z,100254.61
2019-05-20T14:53:13.043Z,100262.84
2019-05-20T14:55:42.689Z,100280.20
2019-05-20T14:58:10.303Z,100280.95
2019-05-20T15:00:38.027Z,100286.73
2019-05-20T15:03:05.779Z,100288.45
2019-05-20T15:05:33.620Z,100288.20
2019-05-20T15:08:01.540Z,100289.20
2019-05-20T15:10:29.267Z,100289.89
2019-05-20T15:12:57.054Z,100290.27
2019-05-20T15:15:24.840Z,100296.45
2019-05-20T15:17:52.651Z,100304.89
2019-05-20T15:20:20.372Z,100250.84
2019-05-20T15:22:48.130Z,100299.89
2019-05-20T15:25:15.867Z,100302.08
2019-05-20T15:27:43.623Z,100293.53
2019-05-20T15:30:11.378Z,100274.70
2019-05-20T15:32:39.098Z,100287.10
2019-05-20T15:35:08.122Z,100279.51
2019-05-20T15:37:37.982Z,100273.97
2019-05-20T15:40:05.751Z,100279.70
2019-05-20T15:42:33.562Z,100278.52
2019-05-20T15:45:01.289Z,100279.20
2019-05-20T15:47:29.124Z,100281.33
2019-05-20T15:49:56.868Z,100270.88
2019-05-20T15:52:24.771Z,100267.83
2019-05-20T15:54:52.575Z,100262.62
2019-05-20T15:57:20.343Z,100259.05
2019-05-20T15:59:48.123Z,100258.13
2019-05-20T16:02:15.835Z,100250.36
2019-05-20T16:04:43.574Z,100253.91
2019-05-20T16:07:11.355Z,100253.91
2019-05-20T16:09:39.133Z,100256.77
2019-05-20T16:12:06.931Z,100253.56
2019-05-20T16:14:43.517Z,100258.26
2019-05-20T16:17:08.984Z,100255.92
2019-05-20T16:19:36.849Z,100259.23
2019-05-20T16:22:04.909Z,100262.44
2019-05-20T16:24:33.057Z,100262.43
2019-05-20T16:27:00.925Z,100090.05
2019-05-20T16:29:28.675Z,100256.23
2019-05-20T16:31:56.437Z,100255.49
2019-05-20T16:34:24.248Z,100247.91
2019-05-20T16:36:51.991Z,100242.46
2019-05-20T16:39:19.828Z,100246.19
2019-05-20T16:41:49.005Z,100245.84
2019-05-20T16:44:19.254Z,100255.27
2019-05-20T16:46:47.074Z,100251.89
2019-05-20T16:49:14.895Z,100247.24
2019-05-20T16:51:42.751Z,100251.11
2019-05-20T16:54:10.512Z,100249.66
2019-05-20T16:56:45.856Z,100245.84
2019-05-20T16:59:13.599Z,100245.58
2019-05-20T17:01:46.151Z,100249.17
2019-05-20T17:04:10.803Z,100241.23
2019-05-20T17:06:38.727Z,100254.61
2019-05-20T17:09:06.734Z,100252.16
2019-05-20T17:11:34.830Z,100258.79
2019-05-20T17:14:02.622Z,100257.59
2019-05-20T17:16:34.851Z,100251.23
2019-05-20T17:19:03.552Z,100256.55
2019-05-20T17:21:31.523Z,100258.56
2019-05-20T17:23:59.300Z,100265.86
2019-05-20T17:26:27.028Z,100267.87
2019-05-20T17:28:54.819Z,100269.72
2019-05-20T17:31:26.790Z,100273.89
2019-05-20T17:33:54.682Z,100269.14
2019-05-20T17:36:22.426Z,100279.30
2019-05-20T17:41:59.544Z,100288.34
2019-05-20T17:44:55.316Z,100279.95
2019-05-20T17:47:06.268Z,100274.55
2019-05-20T17:49:35.549Z,100265.33
2019-05-20T17:52:03.792Z,100268.19
2019-05-20T17:54:31.546Z,100265.38
2019-05-20T17:56:59.371Z,100224.54
2019-05-20T17:59:27.145Z,100268.80
2019-05-20T18:01:56.553Z,100257.52
2019-05-20T18:04:24.951Z,100272.30
2019-05-20T18:06:52.714Z,100270.41
2019-05-20T18:09:20.840Z,100269.67
2019-05-20T18:11:48.995Z,100268.41
2019-05-20T18:14:17.458Z,100269.50
2019-05-20T18:16:45.366Z,100276.47
2019-05-20T18:19:13.159Z,100272.70
2019-05-20T18:21:40.863Z,100269.23
2019-05-20T18:24:16.479Z,100270.67
2019-05-20T18:26:48.067Z,100189.06
2019-05-20T18:29:16.373Z,100279.48
2019-05-20T18:31:44.804Z,100284.45
2019-05-20T18:34:13.261Z,100303.17
2019-05-20T18:36:41.248Z,100297.28
2019-05-20T18:39:09.072Z,100308.09
2019-05-20T18:41:36.915Z,100309.03
2019-05-20T18:44:04.775Z,100314.81
2019-05-20T18:46:33.206Z,100319.70
2019-05-20T18:49:04.335Z,100118.61
2019-05-20T18:51:33.140Z,100317.55
2019-05-20T18:54:01.754Z,100298.67
2019-05-20T18:59:12.031Z,100319.13
2019-05-20T19:01:55.826Z,100323.72
2019-05-20T19:04:10.857Z,100319.52
2019-05-20T19:06:38.619Z,100316.53
2019-05-20T19:09:06.571Z,100315.94
2019-05-20T19:11:34.377Z,100311.50
2019-05-20T19:14:03.124Z,100310.70
2019-05-20T19:16:30.930Z,100310.77
2019-05-20T19:18:58.701Z,100304.28
2019-05-20T19:21:26.465Z,100312.25
2019-05-20T19:23:54.248Z,100310.77
2019-05-20T19:26:24.899Z,100312.32
2019-05-20T19:28:53.052Z,100313.28
2019-05-20T19:31:24.755Z,100305.03
2019-05-20T19:33:52.454Z,100304.24
2019-05-20T19:36:20.212Z,100300.78
2019-05-20T19:38:48.035Z,100302.02
2019-05-20T19:41:17.939Z,100299.06
2019-05-20T19:43:45.651Z,100301.10
2019-05-20T19:46:13.482Z,100301.27
2019-05-20T19:48:41.503Z,100292.35
2019-05-20T19:51:09.374Z,100292.51
2019-05-20T19:53:37.203Z,100291.75
2019-05-20T19:56:05.235Z,100293.11
2019-05-20T19:58:32.955Z,100297.11
2019-05-20T20:01:00.798Z,100289.36
2019-05-20T20:03:28.684Z,100285.45
2019-05-20T20:05:56.429Z,100283.24
2019-05-20T20:08:26.658Z,100288.21
2019-05-20T20:10:56.280Z,100290.03
2019-05-20T20:13:25.055Z,100291.19
2019-05-20T20:15:53.257Z,100300.31
2019-05-20T20:18:21.374Z,100293.06
2019-05-20T20:20:49.268Z,100295.48
2019-05-20T20:23:19.083Z,100298.96
2019-05-20T20:25:46.851Z,100306.12
2019-05-20T20:28:14.590Z,100306.41
2019-05-20T20:30:43.876Z,100303.80
2019-05-20T20:33:11.671Z,100295.68
2019-05-20T20:35:39.402Z,100300.78
2019-05-20T20:38:07.139Z,100295.47
2019-05-20T20:40:35.247Z,100288.37
2019-05-20T20:43:03.799Z,100280.16
2019-05-20T20:45:31.682Z,100271.81
2019-05-20T20:48:00.184Z,100276.36
2019-05-20T20:50:40.671Z,100271.34
2019-05-20T20:53:08.502Z,100272.81
2019-05-20T20:55:36.264Z,100281.91
2019-05-20T20:58:04.044Z,100286.06
2019-05-20T21:00:31.825Z,100287.52
2019-05-20T21:02:59.695Z,100294.00
2019-05-20T21:05:27.485Z,100298.47
2019-05-20T21:07:55.312Z,100301.67
2019-05-20T21:10:23.071Z,100303.30
2019-05-20T21:12:50.935Z,100308.81
2019-05-20T21:15:18.667Z,100299.92
2019-05-20T21:17:49.478Z,100300.41
2019-05-20T21:20:17.332Z,100299.83
2019-05-20T21:23:00.826Z,100299.91
2019-05-20T21:25:18.086Z,100303.91
2019-05-20T21:27:45.815Z,100305.16
2019-05-20T21:30:13.592Z,100304.93
2019-05-20T21:32:41.574Z,100307.98
2019-05-20T21:35:12.655Z,100304.45
2019-05-20T21:37:40.483Z,100297.27
2019-05-20T21:40:13.993Z,100295.38
2019-05-20T21:42:41.790Z,100289.00
2019-05-20T21:45:09.576Z,100284.98
2019-05-20T21:47:37.403Z,100298.13
2019-05-20T21:50:13.247Z,100282.81
2019-05-20T21:52:42.356Z,100287.80
2019-05-20T21:55:17.504Z,100279.27
2019-05-20T21:57:45.416Z,100280.44
2019-05-20T22:00:15.999Z,100279.30
2019-05-20T22:02:43.755Z,100279.67
2019-05-20T22:05:11.490Z,100278.09
2019-05-20T22:07:39.264Z,100274.10
2019-05-20T22:10:07.052Z,100264.02
2019-05-20T22:12:34.797Z,100267.14
2019-05-20T22:15:02.595Z,100257.03
2019-05-20T22:17:30.326Z,100257.33
2019-05-20T22:19:58.097Z,100253.48
2019-05-20T22:22:37.757Z,100250.95
2019-05-20T22:25:07.148Z,100246.45
2019-05-20T22:27:38.992Z,100241.84
2019-05-20T22:30:06.752Z,100235.25
2019-05-20T22:32:34.478Z,100237.84
2019-05-20T22:35:02.229Z,100238.93
2019-05-20T22:37:29.968Z,100242.56
2019-05-20T22:39:57.720Z,100238.80
2019-05-20T22:42:25.459Z,100236.58
2019-05-20T22:44:53.210Z,100236.08
2019-05-20T22:47:21.011Z,100241.59
2019-05-20T22:49:48.837Z,100239.09
2019-05-20T22:52:16.582Z,100233.41
2019-05-20T22:54:44.305Z,100227.69
2019-05-20T22:57:12.076Z,100230.91
2019-05-20T22:59:39.800Z,100226.39
2019-05-20T23:02:07.787Z,100222.73
2019-05-20T23:04:35.592Z,100222.45
2019-05-20T23:07:17.499Z,100231.40
2019-05-20T23:09:34.981Z,100232.33
2019-05-20T23:12:04.896Z,100237.32
2019-05-20T23:14:32.873Z,100234.31
2019-05-20T23:17:00.619Z,100236.78
2019-05-20T23:19:28.399Z,100242.22
2019-05-20T23:21:56.159Z,100236.23
2019-05-20T23:24:23.912Z,100234.13
2019-05-20T23:26:51.651Z,100226.94
2019-05-20T23:29:19.391Z,100223.11
2019-05-20T23:31:47.216Z,100213.73
2019-05-20T23:34:14.926Z,100216.69
2019-05-20T23:36:42.644Z,100223.26
2019-05-20T23:39:10.362Z,100232.79
2019-05-20T23:41:38.172Z,100224.14
2019-05-20T23:44:05.878Z,100222.67
2019-05-20T23:46:33.617Z,100219.53
2019-05-20T23:49:01.328Z,100216.84
2019-05-20T23:51:36.383Z,100223.39
2019-05-20T23:54:04.172Z,100223.70
2019-05-20T23:56:31.923Z,100228.22
2019-05-20T23:58:59.699Z,100216.83
